sensor_id;sensor_type;location;lat;lon;timestamp;temperature;humidity
70366;DHT22;57787;48.216;12.396;2023-02-22T00:00:43;2.30;86.20
70366;DHT22;57787;48.216;12.396;2023-02-22T00:03:22;2.30;85.70
70366;DHT22;57787;48.216;12.396;2023-02-22T00:05:56;2.30;86.30
70366;DHT22;57787;48.216;12.396;2023-02-22T00:08:25;2.30;86.90
70366;DHT22;57787;48.216;12.396;2023-02-22T00:10:57;2.20;86.60
70366;DHT22;57787;48.216;12.396;2023-02-22T00:13:25;2.20;86.20
70366;DHT22;57787;48.216;12.396;2023-02-22T00:15:56;2.20;85.90
70366;DHT22;57787;48.216;12.396;2023-02-22T00:18:24;2.20;86.10
70366;DHT22;57787;48.216;12.396;2023-02-22T00:20:55;2.10;86.20
70366;DHT22;57787;48.216;12.396;2023-02-22T00:23:26;2.10;86.20
70366;DHT22;57787;48.216;12.396;2023-02-22T00:25:55;2.10;86.50
70366;DHT22;57787;48.216;12.396;2023-02-22T00:28:23;2.10;86.40
70366;DHT22;57787;48.216;12.396;2023-02-22T00:30:51;2.10;86.40
70366;DHT22;57787;48.216;12.396;2023-02-22T00:33:19;2.00;86.40
70366;DHT22;57787;48.216;12.396;2023-02-22T00:35:46;2.00;86.00
70366;DHT22;57787;48.216;12.396;2023-02-22T00:38:15;2.00;86.20
70366;DHT22;57787;48.216;12.396;2023-02-22T00:40:42;2.00;86.70
70366;DHT22;57787;48.216;12.396;2023-02-22T00:43:11;1.90;87.00
70366;DHT22;57787;48.216;12.396;2023-02-22T00:45:41;1.90;86.80
70366;DHT22;57787;48.216;12.396;2023-02-22T00:48:10;1.90;86.70
70366;DHT22;57787;48.216;12.396;2023-02-22T00:50:37;1.90;87.10
70366;DHT22;57787;48.216;12.396;2023-02-22T00:53:05;1.80;86.90
70366;DHT22;57787;48.216;12.396;2023-02-22T00:55:35;1.80;87.20
70366;DHT22;57787;48.216;12.396;2023-02-22T00:58:03;1.80;87.00
70366;DHT22;57787;48.216;12.396;2023-02-22T01:00:36;1.80;86.90
70366;DHT22;57787;48.216;12.396;2023-02-22T01:03:05;1.80;87.00
70366;DHT22;57787;48.216;12.396;2023-02-22T01:05:32;1.80;87.40
70366;DHT22;57787;48.216;12.396;2023-02-22T01:08:01;1.70;86.80
70366;DHT22;57787;48.216;12.396;2023-02-22T01:10:29;1.70;86.70
70366;DHT22;57787;48.216;12.396;2023-02-22T01:12:58;1.70;87.30
70366;DHT22;57787;48.216;12.396;2023-02-22T01:15:27;1.60;87.20
70366;DHT22;57787;48.216;12.396;2023-02-22T01:17:57;1.60;87.60
70366;DHT22;57787;48.216;12.396;2023-02-22T01:20:26;1.60;87.70
70366;DHT22;57787;48.216;12.396;2023-02-22T01:22:56;1.60;88.50
70366;DHT22;57787;48.216;12.396;2023-02-22T01:25:25;1.60;87.70
70366;DHT22;57787;48.216;12.396;2023-02-22T01:27:53;1.50;87.50
70366;DHT22;57787;48.216;12.396;2023-02-22T01:30:22;1.50;87.70
70366;DHT22;57787;48.216;12.396;2023-02-22T01:32:50;1.50;87.70
70366;DHT22;57787;48.216;12.396;2023-02-22T01:35:20;1.50;88.40
70366;DHT22;57787;48.216;12.396;2023-02-22T01:37:48;1.50;88.30
70366;DHT22;57787;48.216;12.396;2023-02-22T01:40:19;1.50;88.80
70366;DHT22;57787;48.216;12.396;2023-02-22T01:42:50;1.40;88.20
70366;DHT22;57787;48.216;12.396;2023-02-22T01:48:03;1.40;88.20
70366;DHT22;57787;48.216;12.396;2023-02-22T01:50:31;1.40;87.90
70366;DHT22;57787;48.216;12.396;2023-02-22T01:53:01;1.40;87.90
70366;DHT22;57787;48.216;12.396;2023-02-22T01:55:30;1.30;88.10
70366;DHT22;57787;48.216;12.396;2023-02-22T01:57:58;1.30;87.80
70366;DHT22;57787;48.216;12.396;2023-02-22T02:00:26;1.30;88.20
70366;DHT22;57787;48.216;12.396;2023-02-22T02:03:00;1.30;88.00
70366;DHT22;57787;48.216;12.396;2023-02-22T02:05:29;1.30;88.20
70366;DHT22;57787;48.216;12.396;2023-02-22T02:07:58;1.30;88.40
70366;DHT22;57787;48.216;12.396;2023-02-22T02:10:29;1.30;88.00
70366;DHT22;57787;48.216;12.396;2023-02-22T02:12:58;1.20;88.10
70366;DHT22;57787;48.216;12.396;2023-02-22T02:15:27;1.20;87.90
70366;DHT22;57787;48.216;12.396;2023-02-22T02:17:58;1.20;88.20
70366;DHT22;57787;48.216;12.396;2023-02-22T02:23:23;1.20;88.20
70366;DHT22;57787;48.216;12.396;2023-02-22T02:31:26;1.10;87.80
70366;DHT22;57787;48.216;12.396;2023-02-22T02:34:18;1.10;87.80
70366;DHT22;57787;48.216;12.396;2023-02-22T02:39:48;1.00;87.70
70366;DHT22;57787;48.216;12.396;2023-02-22T02:42:18;1.00;87.70
70366;DHT22;57787;48.216;12.396;2023-02-22T02:47:24;0.90;88.00
70366;DHT22;57787;48.216;12.396;2023-02-22T02:52:23;0.90;87.80
70366;DHT22;57787;48.216;12.396;2023-02-22T02:54:52;0.80;87.90
70366;DHT22;57787;48.216;12.396;2023-02-22T02:57:21;0.80;87.90
70366;DHT22;57787;48.216;12.396;2023-02-22T02:59:51;0.80;88.00
70366;DHT22;57787;48.216;12.396;2023-02-22T03:07:54;0.70;88.10
70366;DHT22;57787;48.216;12.396;2023-02-22T03:10:35;0.70;88.20
70366;DHT22;57787;48.216;12.396;2023-02-22T03:18:08;0.60;87.90
70366;DHT22;57787;48.216;12.396;2023-02-22T03:23:20;0.60;88.40
70366;DHT22;57787;48.216;12.396;2023-02-22T03:28:52;0.60;88.60
70366;DHT22;57787;48.216;12.396;2023-02-22T03:31:24;0.50;88.30
70366;DHT22;57787;48.216;12.396;2023-02-22T03:33:55;0.60;88.20
70366;DHT22;57787;48.216;12.396;2023-02-22T03:36:36;0.60;88.80
70366;DHT22;57787;48.216;12.396;2023-02-22T03:39:13;0.50;88.40
70366;DHT22;57787;48.216;12.396;2023-02-22T03:41:46;0.50;88.30
70366;DHT22;57787;48.216;12.396;2023-02-22T03:44:22;0.50;88.60
70366;DHT22;57787;48.216;12.396;2023-02-22T03:46:53;0.50;88.70
70366;DHT22;57787;48.216;12.396;2023-02-22T03:52:32;0.50;89.00
70366;DHT22;57787;48.216;12.396;2023-02-22T03:55:02;0.50;89.10
70366;DHT22;57787;48.216;12.396;2023-02-22T03:57:39;0.40;89.10
70366;DHT22;57787;48.216;12.396;2023-02-22T04:00:19;0.40;89.00
70366;DHT22;57787;48.216;12.396;2023-02-22T04:02:48;0.40;88.90
70366;DHT22;57787;48.216;12.396;2023-02-22T04:05:16;0.40;88.80
70366;DHT22;57787;48.216;12.396;2023-02-22T04:07:45;0.40;89.00
70366;DHT22;57787;48.216;12.396;2023-02-22T04:10:13;0.40;89.20
70366;DHT22;57787;48.216;12.396;2023-02-22T04:12:41;0.40;89.20
70366;DHT22;57787;48.216;12.396;2023-02-22T04:15:11;0.40;89.20
70366;DHT22;57787;48.216;12.396;2023-02-22T04:17:38;0.40;88.90
70366;DHT22;57787;48.216;12.396;2023-02-22T04:20:05;0.30;88.60
70366;DHT22;57787;48.216;12.396;2023-02-22T04:22:34;0.30;88.50
70366;DHT22;57787;48.216;12.396;2023-02-22T04:25:02;0.30;88.50
70366;DHT22;57787;48.216;12.396;2023-02-22T04:27:30;0.30;89.00
70366;DHT22;57787;48.216;12.396;2023-02-22T04:29:58;0.30;88.60
70366;DHT22;57787;48.216;12.396;2023-02-22T04:32:25;0.30;88.70
70366;DHT22;57787;48.216;12.396;2023-02-22T04:34:53;0.30;89.00
70366;DHT22;57787;48.216;12.396;2023-02-22T04:37:20;0.30;89.00
70366;DHT22;57787;48.216;12.396;2023-02-22T04:39:49;0.20;88.90
70366;DHT22;57787;48.216;12.396;2023-02-22T04:42:16;0.20;88.80
70366;DHT22;57787;48.216;12.396;2023-02-22T04:44:44;0.20;88.70
70366;DHT22;57787;48.216;12.396;2023-02-22T04:47:12;0.20;88.90
70366;DHT22;57787;48.216;12.396;2023-02-22T04:49:41;0.10;89.00
70366;DHT22;57787;48.216;12.396;2023-02-22T04:52:09;0.20;89.10
70366;DHT22;57787;48.216;12.396;2023-02-22T04:54:36;0.10;89.20
70366;DHT22;57787;48.216;12.396;2023-02-22T04:57:04;0.10;89.20
70366;DHT22;57787;48.216;12.396;2023-02-22T04:59:31;0.10;89.40
70366;DHT22;57787;48.216;12.396;2023-02-22T05:01:59;0.10;89.30
70366;DHT22;57787;48.216;12.396;2023-02-22T05:04:30;0.10;89.10
70366;DHT22;57787;48.216;12.396;2023-02-22T05:06:58;0.10;90.00
70366;DHT22;57787;48.216;12.396;2023-02-22T05:09:26;0.10;90.30
70366;DHT22;57787;48.216;12.396;2023-02-22T05:11:54;0.10;90.10
70366;DHT22;57787;48.216;12.396;2023-02-22T05:14:21;0.10;90.00
70366;DHT22;57787;48.216;12.396;2023-02-22T05:16:54;0.10;89.70
70366;DHT22;57787;48.216;12.396;2023-02-22T05:19:22;0.10;89.70
70366;DHT22;57787;48.216;12.396;2023-02-22T05:21:50;0.10;89.70
70366;DHT22;57787;48.216;12.396;2023-02-22T05:24:18;0.10;89.70
70366;DHT22;57787;48.216;12.396;2023-02-22T05:26:45;0.10;89.70
70366;DHT22;57787;48.216;12.396;2023-02-22T05:29:13;0.10;90.00
70366;DHT22;57787;48.216;12.396;2023-02-22T05:31:41;0.10;90.10
70366;DHT22;57787;48.216;12.396;2023-02-22T05:34:11;0.10;89.80
70366;DHT22;57787;48.216;12.396;2023-02-22T05:36:38;0.10;89.60
70366;DHT22;57787;48.216;12.396;2023-02-22T05:39:06;0.10;89.60
70366;DHT22;57787;48.216;12.396;2023-02-22T05:41:34;0.10;89.50
70366;DHT22;57787;48.216;12.396;2023-02-22T05:44:01;0.10;89.70
70366;DHT22;57787;48.216;12.396;2023-02-22T05:46:30;0.10;89.90
70366;DHT22;57787;48.216;12.396;2023-02-22T05:48:58;0.10;90.00
70366;DHT22;57787;48.216;12.396;2023-02-22T05:51:26;0.00;90.00
70366;DHT22;57787;48.216;12.396;2023-02-22T05:53:54;0.10;90.10
70366;DHT22;57787;48.216;12.396;2023-02-22T05:56:22;0.10;90.40
70366;DHT22;57787;48.216;12.396;2023-02-22T05:58:51;0.10;90.60
70366;DHT22;57787;48.216;12.396;2023-02-22T06:01:20;0.10;90.70
70366;DHT22;57787;48.216;12.396;2023-02-22T06:03:48;0.20;90.90
70366;DHT22;57787;48.216;12.396;2023-02-22T06:06:17;0.10;90.70
70366;DHT22;57787;48.216;12.396;2023-02-22T06:08:48;0.10;90.70
70366;DHT22;57787;48.216;12.396;2023-02-22T06:11:16;0.10;90.60
70366;DHT22;57787;48.216;12.396;2023-02-22T06:13:50;0.10;90.30
70366;DHT22;57787;48.216;12.396;2023-02-22T06:16:22;0.10;90.00
70366;DHT22;57787;48.216;12.396;2023-02-22T06:18:50;0.10;89.80
70366;DHT22;57787;48.216;12.396;2023-02-22T06:21:18;0.10;90.00
70366;DHT22;57787;48.216;12.396;2023-02-22T06:23:48;0.10;89.90
70366;DHT22;57787;48.216;12.396;2023-02-22T06:26:17;0.10;89.90
70366;DHT22;57787;48.216;12.396;2023-02-22T06:28:46;0.10;89.90
70366;DHT22;57787;48.216;12.396;2023-02-22T06:31:14;0.00;89.90
70366;DHT22;57787;48.216;12.396;2023-02-22T06:33:41;0.10;90.10
70366;DHT22;57787;48.216;12.396;2023-02-22T06:36:09;0.10;90.40
70366;DHT22;57787;48.216;12.396;2023-02-22T06:38:37;0.20;90.40
70366;DHT22;57787;48.216;12.396;2023-02-22T06:41:04;0.20;90.40
70366;DHT22;57787;48.216;12.396;2023-02-22T06:43:32;0.20;90.70
70366;DHT22;57787;48.216;12.396;2023-02-22T06:46:00;0.20;90.80
70366;DHT22;57787;48.216;12.396;2023-02-22T06:48:28;0.30;90.90
70366;DHT22;57787;48.216;12.396;2023-02-22T06:50:55;0.30;90.80
70366;DHT22;57787;48.216;12.396;2023-02-22T06:53:22;0.30;90.90
70366;DHT22;57787;48.216;12.396;2023-02-22T06:55:52;0.40;91.20
70366;DHT22;57787;48.216;12.396;2023-02-22T06:58:19;0.50;91.40
70366;DHT22;57787;48.216;12.396;2023-02-22T07:00:47;0.60;91.40
70366;DHT22;57787;48.216;12.396;2023-02-22T07:03:16;0.70;91.50
70366;DHT22;57787;48.216;12.396;2023-02-22T07:05:45;0.70;91.50
70366;DHT22;57787;48.216;12.396;2023-02-22T07:08:13;0.80;91.50
70366;DHT22;57787;48.216;12.396;2023-02-22T07:10:41;0.80;91.40
70366;DHT22;57787;48.216;12.396;2023-02-22T07:13:09;0.90;91.40
70366;DHT22;57787;48.216;12.396;2023-02-22T07:15:36;1.00;91.50
70366;DHT22;57787;48.216;12.396;2023-02-22T07:18:06;1.00;91.70
70366;DHT22;57787;48.216;12.396;2023-02-22T07:20:34;1.10;91.60
70366;DHT22;57787;48.216;12.396;2023-02-22T07:23:03;1.10;91.60
70366;DHT22;57787;48.216;12.396;2023-02-22T07:25:31;1.30;91.70
70366;DHT22;57787;48.216;12.396;2023-02-22T07:27:58;1.30;91.90
70366;DHT22;57787;48.216;12.396;2023-02-22T07:30:30;1.40;92.20
70366;DHT22;57787;48.216;12.396;2023-02-22T07:32:59;1.60;92.40
70366;DHT22;57787;48.216;12.396;2023-02-22T07:35:35;1.70;92.60
70366;DHT22;57787;48.216;12.396;2023-02-22T07:38:04;1.80;92.80
70366;DHT22;57787;48.216;12.396;2023-02-22T07:40:32;2.00;93.00
70366;DHT22;57787;48.216;12.396;2023-02-22T07:43:04;2.10;93.30
70366;DHT22;57787;48.216;12.396;2023-02-22T07:45:39;2.30;93.40
70366;DHT22;57787;48.216;12.396;2023-02-22T07:48:08;2.40;93.60
70366;DHT22;57787;48.216;12.396;2023-02-22T07:50:37;2.60;93.70
70366;DHT22;57787;48.216;12.396;2023-02-22T07:53:05;2.70;93.80
70366;DHT22;57787;48.216;12.396;2023-02-22T07:55:33;2.90;94.00
70366;DHT22;57787;48.216;12.396;2023-02-22T07:58:15;3.00;94.10
70366;DHT22;57787;48.216;12.396;2023-02-22T08:00:44;3.20;94.20
70366;DHT22;57787;48.216;12.396;2023-02-22T08:03:16;3.40;94.20
70366;DHT22;57787;48.216;12.396;2023-02-22T08:05:45;3.60;94.20
70366;DHT22;57787;48.216;12.396;2023-02-22T08:08:13;3.70;94.00
70366;DHT22;57787;48.216;12.396;2023-02-22T08:10:46;3.90;94.00
70366;DHT22;57787;48.216;12.396;2023-02-22T08:13:18;4.00;93.90
70366;DHT22;57787;48.216;12.396;2023-02-22T08:15:47;4.20;93.60
70366;DHT22;57787;48.216;12.396;2023-02-22T08:18:17;4.30;93.50
70366;DHT22;57787;48.216;12.396;2023-02-22T08:20:47;4.40;93.40
70366;DHT22;57787;48.216;12.396;2023-02-22T08:23:15;4.60;93.00
70366;DHT22;57787;48.216;12.396;2023-02-22T08:25:43;4.70;92.20
70366;DHT22;57787;48.216;12.396;2023-02-22T08:28:12;4.90;92.10
70366;DHT22;57787;48.216;12.396;2023-02-22T08:30:40;5.10;91.70
70366;DHT22;57787;48.216;12.396;2023-02-22T08:33:15;5.20;90.30
70366;DHT22;57787;48.216;12.396;2023-02-22T08:35:46;5.30;89.50
70366;DHT22;57787;48.216;12.396;2023-02-22T08:38:21;5.40;87.90
70366;DHT22;57787;48.216;12.396;2023-02-22T08:40:49;5.50;86.90
70366;DHT22;57787;48.216;12.396;2023-02-22T08:43:18;5.70;86.00
70366;DHT22;57787;48.216;12.396;2023-02-22T08:45:50;5.90;85.10
70366;DHT22;57787;48.216;12.396;2023-02-22T08:48:19;6.00;84.00
70366;DHT22;57787;48.216;12.396;2023-02-22T08:50:47;6.20;82.30
70366;DHT22;57787;48.216;12.396;2023-02-22T08:53:16;6.40;81.00
70366;DHT22;57787;48.216;12.396;2023-02-22T08:55:45;6.60;80.40
70366;DHT22;57787;48.216;12.396;2023-02-22T08:58:13;6.80;79.10
70366;DHT22;57787;48.216;12.396;2023-02-22T09:00:44;7.00;78.20
70366;DHT22;57787;48.216;12.396;2023-02-22T09:03:12;7.20;77.70
70366;DHT22;57787;48.216;12.396;2023-02-22T09:05:41;7.40;76.80
70366;DHT22;57787;48.216;12.396;2023-02-22T09:08:10;7.50;75.30
70366;DHT22;57787;48.216;12.396;2023-02-22T09:10:39;7.70;74.80
70366;DHT22;57787;48.216;12.396;2023-02-22T09:13:08;7.90;73.80
70366;DHT22;57787;48.216;12.396;2023-02-22T09:15:36;8.00;73.20
70366;DHT22;57787;48.216;12.396;2023-02-22T09:18:07;8.20;73.50
70366;DHT22;57787;48.216;12.396;2023-02-22T09:20:35;8.40;73.10
70366;DHT22;57787;48.216;12.396;2023-02-22T09:23:03;8.50;72.50
70366;DHT22;57787;48.216;12.396;2023-02-22T09:25:31;8.60;70.50
70366;DHT22;57787;48.216;12.396;2023-02-22T09:28:01;8.70;69.50
70366;DHT22;57787;48.216;12.396;2023-02-22T09:30:32;8.90;68.20
70366;DHT22;57787;48.216;12.396;2023-02-22T09:33:02;9.00;68.30
70366;DHT22;57787;48.216;12.396;2023-02-22T09:35:31;9.10;66.80
70366;DHT22;57787;48.216;12.396;2023-02-22T09:38:03;9.20;66.00
70366;DHT22;57787;48.216;12.396;2023-02-22T09:40:33;9.20;65.20
70366;DHT22;57787;48.216;12.396;2023-02-22T09:48:25;9.60;65.70
70366;DHT22;57787;48.216;12.396;2023-02-22T09:50:53;9.70;65.00
70366;DHT22;57787;48.216;12.396;2023-02-22T09:53:32;9.80;64.80
70366;DHT22;57787;48.216;12.396;2023-02-22T09:56:13;9.90;65.00
70366;DHT22;57787;48.216;12.396;2023-02-22T09:58:43;10.00;65.80
70366;DHT22;57787;48.216;12.396;2023-02-22T10:01:58;10.10;65.20
70366;DHT22;57787;48.216;12.396;2023-02-22T10:07:05;10.30;65.20
70366;DHT22;57787;48.216;12.396;2023-02-22T10:09:37;10.40;66.30
70366;DHT22;57787;48.216;12.396;2023-02-22T10:12:09;10.50;64.90
70366;DHT22;57787;48.216;12.396;2023-02-22T10:17:48;10.70;64.50
70366;DHT22;57787;48.216;12.396;2023-02-22T10:20:20;10.80;65.50
70366;DHT22;57787;48.216;12.396;2023-02-22T10:23:16;11.00;66.20
70366;DHT22;57787;48.216;12.396;2023-02-22T10:25:49;11.10;64.60
70366;DHT22;57787;48.216;12.396;2023-02-22T10:28:27;11.30;63.60
70366;DHT22;57787;48.216;12.396;2023-02-22T10:31:00;11.40;63.30
70366;DHT22;57787;48.216;12.396;2023-02-22T10:33:31;11.40;62.60
70366;DHT22;57787;48.216;12.396;2023-02-22T10:36:00;11.60;62.90
70366;DHT22;57787;48.216;12.396;2023-02-22T10:38:28;11.60;63.00
70366;DHT22;57787;48.216;12.396;2023-02-22T10:43:39;11.80;63.10
70366;DHT22;57787;48.216;12.396;2023-02-22T10:46:08;11.90;63.20
70366;DHT22;57787;48.216;12.396;2023-02-22T10:48:43;12.00;64.00
70366;DHT22;57787;48.216;12.396;2023-02-22T10:51:11;12.00;62.90
70366;DHT22;57787;48.216;12.396;2023-02-22T10:53:39;12.10;62.60
70366;DHT22;57787;48.216;12.396;2023-02-22T10:56:17;12.10;63.20
70366;DHT22;57787;48.216;12.396;2023-02-22T10:59:02;12.20;63.10
70366;DHT22;57787;48.216;12.396;2023-02-22T11:01:37;12.20;62.70
70366;DHT22;57787;48.216;12.396;2023-02-22T11:07:06;12.30;61.90
70366;DHT22;57787;48.216;12.396;2023-02-22T11:09:46;12.40;62.10
70366;DHT22;57787;48.216;12.396;2023-02-22T11:12:19;12.50;62.50
70366;DHT22;57787;48.216;12.396;2023-02-22T11:14:47;12.50;62.90
70366;DHT22;57787;48.216;12.396;2023-02-22T11:17:17;12.60;62.40
70366;DHT22;57787;48.216;12.396;2023-02-22T11:19:46;12.70;62.10
70366;DHT22;57787;48.216;12.396;2023-02-22T11:22:22;12.80;61.90
70366;DHT22;57787;48.216;12.396;2023-02-22T11:27:40;13.00;61.70
70366;DHT22;57787;48.216;12.396;2023-02-22T11:33:04;13.10;61.10
70366;DHT22;57787;48.216;12.396;2023-02-22T11:35:52;13.10;59.90
70366;DHT22;57787;48.216;12.396;2023-02-22T11:43:36;13.50;60.00
70366;DHT22;57787;48.216;12.396;2023-02-22T11:46:05;13.60;59.50
70366;DHT22;57787;48.216;12.396;2023-02-22T11:48:34;13.80;58.70
70366;DHT22;57787;48.216;12.396;2023-02-22T11:51:12;13.80;58.90
70366;DHT22;57787;48.216;12.396;2023-02-22T11:53:49;13.90;58.60
70366;DHT22;57787;48.216;12.396;2023-02-22T12:01:38;14.30;57.90
70366;DHT22;57787;48.216;12.396;2023-02-22T12:04:18;14.40;57.70
70366;DHT22;57787;48.216;12.396;2023-02-22T12:07:13;14.50;57.40
70366;DHT22;57787;48.216;12.396;2023-02-22T12:09:49;14.60;57.10
70366;DHT22;57787;48.216;12.396;2023-02-22T12:20:35;14.90;56.30
70366;DHT22;57787;48.216;12.396;2023-02-22T12:25:37;14.90;55.20
70366;DHT22;57787;48.216;12.396;2023-02-22T12:28:20;14.90;55.70
70366;DHT22;57787;48.216;12.396;2023-02-22T12:30:55;14.80;55.50
70366;DHT22;57787;48.216;12.396;2023-02-22T12:36:10;14.90;55.20
70366;DHT22;57787;48.216;12.396;2023-02-22T12:38:45;14.90;55.80
70366;DHT22;57787;48.216;12.396;2023-02-22T12:41:30;14.90;56.00
70366;DHT22;57787;48.216;12.396;2023-02-22T12:44:02;15.00;57.00
70366;DHT22;57787;48.216;12.396;2023-02-22T12:51:56;15.10;55.20
70366;DHT22;57787;48.216;12.396;2023-02-22T12:57:23;15.20;55.20
70366;DHT22;57787;48.216;12.396;2023-02-22T12:59:54;15.20;55.30
70366;DHT22;57787;48.216;12.396;2023-02-22T13:02:40;15.10;55.90
70366;DHT22;57787;48.216;12.396;2023-02-22T13:05:13;15.20;56.00
70366;DHT22;57787;48.216;12.396;2023-02-22T13:10:26;15.30;56.20
70366;DHT22;57787;48.216;12.396;2023-02-22T13:18:47;15.50;56.10
70366;DHT22;57787;48.216;12.396;2023-02-22T13:27:03;15.70;56.10
70366;DHT22;57787;48.216;12.396;2023-02-22T13:39:54;15.90;54.40
70366;DHT22;57787;48.216;12.396;2023-02-22T13:47:51;15.70;54.40
70366;DHT22;57787;48.216;12.396;2023-02-22T13:52:54;15.80;54.20
70366;DHT22;57787;48.216;12.396;2023-02-22T13:55:25;15.80;54.10
70366;DHT22;57787;48.216;12.396;2023-02-22T13:58:03;15.80;53.70
70366;DHT22;57787;48.216;12.396;2023-02-22T14:00:51;15.90;53.80
70366;DHT22;57787;48.216;12.396;2023-02-22T14:03:38;15.90;54.00
70366;DHT22;57787;48.216;12.396;2023-02-22T14:06:09;15.90;53.70
70366;DHT22;57787;48.216;12.396;2023-02-22T14:08:56;16.00;54.50
70366;DHT22;57787;48.216;12.396;2023-02-22T14:16:28;16.00;53.60
70366;DHT22;57787;48.216;12.396;2023-02-22T14:21:36;15.90;54.10
70366;DHT22;57787;48.216;12.396;2023-02-22T14:24:20;15.90;53.90
70366;DHT22;57787;48.216;12.396;2023-02-22T14:29:21;15.80;53.10
70366;DHT22;57787;48.216;12.396;2023-02-22T14:36:58;15.60;53.60
70366;DHT22;57787;48.216;12.396;2023-02-22T14:42:22;15.60;53.20
70366;DHT22;57787;48.216;12.396;2023-02-22T14:50:40;15.50;53.70
70366;DHT22;57787;48.216;12.396;2023-02-22T14:55:40;15.50;53.60
70366;DHT22;57787;48.216;12.396;2023-02-22T14:58:19;15.40;54.00
70366;DHT22;57787;48.216;12.396;2023-02-22T15:00:49;15.40;54.40
70366;DHT22;57787;48.216;12.396;2023-02-22T15:05:55;15.50;54.80
70366;DHT22;57787;48.216;12.396;2023-02-22T15:08:26;15.50;54.60
70366;DHT22;57787;48.216;12.396;2023-02-22T15:10:54;15.60;54.20
70366;DHT22;57787;48.216;12.396;2023-02-22T15:13:23;15.60;54.00
70366;DHT22;57787;48.216;12.396;2023-02-22T15:15:55;15.70;53.90
70366;DHT22;57787;48.216;12.396;2023-02-22T15:18:29;15.70;53.30
70366;DHT22;57787;48.216;12.396;2023-02-22T15:21:06;15.80;53.40
70366;DHT22;57787;48.216;12.396;2023-02-22T15:23:49;15.80;53.50
70366;DHT22;57787;48.216;12.396;2023-02-22T15:26:30;15.80;54.00
70366;DHT22;57787;48.216;12.396;2023-02-22T15:29:07;15.80;53.40
70366;DHT22;57787;48.216;12.396;2023-02-22T15:31:37;15.90;53.30
70366;DHT22;57787;48.216;12.396;2023-02-22T15:37:41;15.90;53.80
70366;DHT22;57787;48.216;12.396;2023-02-22T15:40:13;15.90;53.60
70366;DHT22;57787;48.216;12.396;2023-02-22T15:42:43;15.90;53.50
70366;DHT22;57787;48.216;12.396;2023-02-22T15:45:13;15.80;53.60
70366;DHT22;57787;48.216;12.396;2023-02-22T15:47:44;15.80;53.50
70366;DHT22;57787;48.216;12.396;2023-02-22T15:50:12;15.80;53.80
70366;DHT22;57787;48.216;12.396;2023-02-22T15:52:58;15.80;53.80
70366;DHT22;57787;48.216;12.396;2023-02-22T15:57:54;15.70;54.40
70366;DHT22;57787;48.216;12.396;2023-02-22T16:00:24;15.60;54.30
70366;DHT22;57787;48.216;12.396;2023-02-22T16:08:38;15.40;56.30
70366;DHT22;57787;48.216;12.396;2023-02-22T16:11:31;15.40;56.50
70366;DHT22;57787;48.216;12.396;2023-02-22T16:14:03;15.30;57.10
70366;DHT22;57787;48.216;12.396;2023-02-22T16:16:32;15.20;57.40
70366;DHT22;57787;48.216;12.396;2023-02-22T16:22:05;15.00;58.10
70366;DHT22;57787;48.216;12.396;2023-02-22T16:24:40;14.90;58.40
70366;DHT22;57787;48.216;12.396;2023-02-22T16:29:39;14.70;59.20
70366;DHT22;57787;48.216;12.396;2023-02-22T16:32:06;14.50;59.60
70366;DHT22;57787;48.216;12.396;2023-02-22T16:34:34;14.40;60.20
70366;DHT22;57787;48.216;12.396;2023-02-22T16:39:46;14.10;60.70
70366;DHT22;57787;48.216;12.396;2023-02-22T16:42:19;14.00;61.10
70366;DHT22;57787;48.216;12.396;2023-02-22T16:44:53;13.90;61.40
70366;DHT22;57787;48.216;12.396;2023-02-22T16:47:23;13.80;61.80
70366;DHT22;57787;48.216;12.396;2023-02-22T16:49:51;13.60;62.50
70366;DHT22;57787;48.216;12.396;2023-02-22T16:52:19;13.50;63.00
70366;DHT22;57787;48.216;12.396;2023-02-22T16:54:49;13.30;63.30
70366;DHT22;57787;48.216;12.396;2023-02-22T16:57:18;13.20;64.00
70366;DHT22;57787;48.216;12.396;2023-02-22T16:59:47;13.20;64.40
70366;DHT22;57787;48.216;12.396;2023-02-22T17:02:18;13.00;64.80
70366;DHT22;57787;48.216;12.396;2023-02-22T17:04:46;12.90;65.00
70366;DHT22;57787;48.216;12.396;2023-02-22T17:07:18;12.80;65.20
70366;DHT22;57787;48.216;12.396;2023-02-22T17:09:47;12.70;65.50
70366;DHT22;57787;48.216;12.396;2023-02-22T17:12:15;12.60;65.70
70366;DHT22;57787;48.216;12.396;2023-02-22T17:14:44;12.40;66.30
70366;DHT22;57787;48.216;12.396;2023-02-22T17:17:15;12.30;66.90
70366;DHT22;57787;48.216;12.396;2023-02-22T17:19:44;12.20;67.10
70366;DHT22;57787;48.216;12.396;2023-02-22T17:22:16;12.00;67.80
70366;DHT22;57787;48.216;12.396;2023-02-22T17:24:44;11.90;67.90
70366;DHT22;57787;48.216;12.396;2023-02-22T17:27:12;11.70;68.00
70366;DHT22;57787;48.216;12.396;2023-02-22T17:29:39;11.60;68.60
70366;DHT22;57787;48.216;12.396;2023-02-22T17:34:41;11.30;70.40
70366;DHT22;57787;48.216;12.396;2023-02-22T17:37:09;11.30;70.30
70366;DHT22;57787;48.216;12.396;2023-02-22T17:39:36;11.20;71.40
70366;DHT22;57787;48.216;12.396;2023-02-22T17:42:04;11.00;71.10
70366;DHT22;57787;48.216;12.396;2023-02-22T17:44:32;10.90;71.90
70366;DHT22;57787;48.216;12.396;2023-02-22T17:47:00;10.80;72.00
70366;DHT22;57787;48.216;12.396;2023-02-22T17:49:28;10.70;71.70
70366;DHT22;57787;48.216;12.396;2023-02-22T17:51:56;10.60;72.80
70366;DHT22;57787;48.216;12.396;2023-02-22T17:54:23;10.40;72.40
70366;DHT22;57787;48.216;12.396;2023-02-22T17:56:53;10.30;73.10
70366;DHT22;57787;48.216;12.396;2023-02-22T17:59:23;10.30;72.80
70366;DHT22;57787;48.216;12.396;2023-02-22T18:01:51;10.10;72.60
70366;DHT22;57787;48.216;12.396;2023-02-22T18:04:19;10.00;73.70
70366;DHT22;57787;48.216;12.396;2023-02-22T18:06:46;9.90;73.60
70366;DHT22;57787;48.216;12.396;2023-02-22T18:09:15;9.80;73.70
70366;DHT22;57787;48.216;12.396;2023-02-22T18:11:45;9.70;73.70
70366;DHT22;57787;48.216;12.396;2023-02-22T18:14:15;9.60;74.50
70366;DHT22;57787;48.216;12.396;2023-02-22T18:16:44;9.50;74.40
70366;DHT22;57787;48.216;12.396;2023-02-22T18:19:14;9.40;74.90
70366;DHT22;57787;48.216;12.396;2023-02-22T18:21:49;9.30;74.50
70366;DHT22;57787;48.216;12.396;2023-02-22T18:24:17;9.20;75.00
70366;DHT22;57787;48.216;12.396;2023-02-22T18:26:45;9.10;74.80
70366;DHT22;57787;48.216;12.396;2023-02-22T18:29:14;9.00;74.80
70366;DHT22;57787;48.216;12.396;2023-02-22T18:31:46;8.90;75.00
70366;DHT22;57787;48.216;12.396;2023-02-22T18:34:17;8.80;75.40
70366;DHT22;57787;48.216;12.396;2023-02-22T18:36:45;8.80;75.90
70366;DHT22;57787;48.216;12.396;2023-02-22T18:39:12;8.70;75.90
70366;DHT22;57787;48.216;12.396;2023-02-22T18:41:41;8.60;75.80
70366;DHT22;57787;48.216;12.396;2023-02-22T18:44:09;8.50;75.90